Terminal Aerodrome Forecast
Issued by NWS Cleveland, OH

Home | Current Version | Previous Version | Graphics & Text | Print | Product List | Glossary Off
Versions: 1 2 3 4 5 6 7 8 9 10 11 12 13 14 15 16 17 18 19 20 21 22 23 24 25 26 27 28 29 30 31 32 33 34 35 36 37 38

000
FTUS41 KCLE 260700 AAA
TAFCLE
TAF AMD
KCLE 260708Z 2607/2712 03014KT 3SM -SN OVC035
      TEMPO 2607/2611 2SM -SN BKN018 OVC030
     FM261500 36012KT 6SM -SN OVC035
     FM262000 36012KT P6SM OVC045
     FM270200 35008KT P6SM OVC020=

USA.gov is the U.S. government's official web portal to all federal, state and local government web resources and services.